sensor_id;sensor_type;location;lat;lon;timestamp;pressure;altitude;pressure_sealevel;temperature;humidity
39177;BME280;24904;52.208;21.192;2024-02-21T00:02:29;100957.35;;;5.30;80.67
39177;BME280;24904;52.208;21.192;2024-02-21T00:07:34;100955.25;;;5.32;80.83
39177;BME280;24904;52.208;21.192;2024-02-21T00:12:39;100956.48;;;5.29;80.84
39177;BME280;24904;52.208;21.192;2024-02-21T00:17:44;100956.14;;;5.28;81.12
39177;BME280;24904;52.208;21.192;2024-02-21T00:22:49;100952.02;;;5.34;81.18
39177;BME280;24904;52.208;21.192;2024-02-21T00:27:54;100947.76;;;5.31;81.20
39177;BME280;24904;52.208;21.192;2024-02-21T00:33:00;100946.77;;;5.30;81.43
39177;BME280;24904;52.208;21.192;2024-02-21T00:38:05;100950.55;;;5.31;81.68
39177;BME280;24904;52.208;21.192;2024-02-21T00:43:10;100946.20;;;5.29;81.86
39177;BME280;24904;52.208;21.192;2024-02-21T00:48:15;100936.33;;;5.31;81.88
39177;BME280;24904;52.208;21.192;2024-02-21T00:53:20;100934.64;;;5.34;82.14
39177;BME280;24904;52.208;21.192;2024-02-21T00:58:25;100935.87;;;5.33;82.23
39177;BME280;24904;52.208;21.192;2024-02-21T01:03:30;100927.55;;;5.34;82.25
39177;BME280;24904;52.208;21.192;2024-02-21T01:08:35;100928.78;;;5.35;82.31
39177;BME280;24904;52.208;21.192;2024-02-21T01:13:40;100919.83;;;5.32;82.19
39177;BME280;24904;52.208;21.192;2024-02-21T01:18:45;100915.27;;;5.33;82.34
39177;BME280;24904;52.208;21.192;2024-02-21T01:23:50;100911.84;;;5.27;82.36
39177;BME280;24904;52.208;21.192;2024-02-21T01:28:55;100902.99;;;5.21;82.63
39177;BME280;24904;52.208;21.192;2024-02-21T01:34:00;100900.96;;;5.26;83.03
39177;BME280;24904;52.208;21.192;2024-02-21T01:39:05;100899.02;;;5.26;83.03
39177;BME280;24904;52.208;21.192;2024-02-21T01:44:10;100894.91;;;5.26;83.11
39177;BME280;24904;52.208;21.192;2024-02-21T01:49:15;100889.30;;;5.32;83.49
39177;BME280;24904;52.208;21.192;2024-02-21T01:54:21;100890.38;;;5.35;83.45
39177;BME280;24904;52.208;21.192;2024-02-21T01:59:26;100889.58;;;5.38;83.83
39177;BME280;24904;52.208;21.192;2024-02-21T02:04:32;100894.86;;;5.42;83.80
39177;BME280;24904;52.208;21.192;2024-02-21T02:09:38;100891.40;;;5.42;83.85
39177;BME280;24904;52.208;21.192;2024-02-21T02:14:43;100890.77;;;5.41;84.26
39177;BME280;24904;52.208;21.192;2024-02-21T02:19:48;100891.02;;;5.40;84.50
39177;BME280;24904;52.208;21.192;2024-02-21T02:24:53;100885.19;;;5.38;85.07
39177;BME280;24904;52.208;21.192;2024-02-21T02:29:58;100883.03;;;5.39;85.32
39177;BME280;24904;52.208;21.192;2024-02-21T02:35:04;100881.23;;;5.40;85.38
39177;BME280;24904;52.208;21.192;2024-02-21T02:40:10;100877.45;;;5.39;85.55
39177;BME280;24904;52.208;21.192;2024-02-21T02:45:16;100878.23;;;5.41;85.82
39177;BME280;24904;52.208;21.192;2024-02-21T02:50:21;100874.17;;;5.41;85.98
39177;BME280;24904;52.208;21.192;2024-02-21T02:55:26;100871.61;;;5.41;85.90
39177;BME280;24904;52.208;21.192;2024-02-21T03:00:31;100871.15;;;5.37;86.08
39177;BME280;24904;52.208;21.192;2024-02-21T03:05:39;100871.05;;;5.33;86.42
39177;BME280;24904;52.208;21.192;2024-02-21T03:10:44;100876.91;;;5.39;86.59
39177;BME280;24904;52.208;21.192;2024-02-21T03:15:49;100873.73;;;5.44;86.66
39177;BME280;24904;52.208;21.192;2024-02-21T03:20:54;100872.91;;;5.43;86.51
39177;BME280;24904;52.208;21.192;2024-02-21T03:25:59;100872.11;;;5.42;86.79
39177;BME280;24904;52.208;21.192;2024-02-21T03:31:05;100871.55;;;5.44;86.76
39177;BME280;24904;52.208;21.192;2024-02-21T03:36:14;100876.42;;;5.45;86.85
39177;BME280;24904;52.208;21.192;2024-02-21T03:41:19;100866.94;;;5.47;86.97
39177;BME280;24904;52.208;21.192;2024-02-21T03:46:25;100865.97;;;5.54;86.79
39177;BME280;24904;52.208;21.192;2024-02-21T03:51:30;100861.98;;;5.55;86.50
39177;BME280;24904;52.208;21.192;2024-02-21T03:56:38;100859.13;;;5.56;86.23
39177;BME280;24904;52.208;21.192;2024-02-21T04:01:44;100859.77;;;5.50;85.98
39177;BME280;24904;52.208;21.192;2024-02-21T04:06:50;100858.87;;;5.44;85.85
39177;BME280;24904;52.208;21.192;2024-02-21T04:11:55;100856.84;;;5.45;85.84
39177;BME280;24904;52.208;21.192;2024-02-21T04:17:00;100857.41;;;5.42;85.31
39177;BME280;24904;52.208;21.192;2024-02-21T04:22:05;100862.08;;;5.38;85.30
39177;BME280;24904;52.208;21.192;2024-02-21T04:27:10;100859.26;;;5.39;85.41
39177;BME280;24904;52.208;21.192;2024-02-21T04:32:15;100856.00;;;5.38;85.05
39177;BME280;24904;52.208;21.192;2024-02-21T04:37:21;100843.52;;;5.33;84.93
39177;BME280;24904;52.208;21.192;2024-02-21T04:42:27;100843.83;;;5.37;85.58
39177;BME280;24904;52.208;21.192;2024-02-21T04:47:32;100848.55;;;5.40;85.38
39177;BME280;24904;52.208;21.192;2024-02-21T04:52:38;100844.56;;;5.42;85.45
39177;BME280;24904;52.208;21.192;2024-02-21T04:57:43;100841.54;;;5.44;85.24
39177;BME280;24904;52.208;21.192;2024-02-21T05:02:48;100845.91;;;5.42;85.44
39177;BME280;24904;52.208;21.192;2024-02-21T05:07:53;100846.29;;;5.46;85.64
39177;BME280;24904;52.208;21.192;2024-02-21T05:12:58;100842.66;;;5.47;85.78
39177;BME280;24904;52.208;21.192;2024-02-21T05:18:05;100834.52;;;5.50;85.76
39177;BME280;24904;52.208;21.192;2024-02-21T05:23:10;100835.55;;;5.52;85.92
39177;BME280;24904;52.208;21.192;2024-02-21T05:28:15;100838.27;;;5.54;86.10
39177;BME280;24904;52.208;21.192;2024-02-21T05:33:20;100835.91;;;5.57;86.17
39177;BME280;24904;52.208;21.192;2024-02-21T05:38:25;100833.14;;;5.58;86.18
39177;BME280;24904;52.208;21.192;2024-02-21T05:43:30;100833.51;;;5.57;86.32
39177;BME280;24904;52.208;21.192;2024-02-21T05:48:35;100833.27;;;5.58;86.32
39177;BME280;24904;52.208;21.192;2024-02-21T05:53:41;100831.52;;;5.58;86.46
39177;BME280;24904;52.208;21.192;2024-02-21T05:58:46;100831.67;;;5.58;86.48
39177;BME280;24904;52.208;21.192;2024-02-21T06:03:51;100826.40;;;5.61;86.57
39177;BME280;24904;52.208;21.192;2024-02-21T06:08:56;100825.09;;;5.65;86.76
39177;BME280;24904;52.208;21.192;2024-02-21T06:14:02;100828.60;;;5.72;86.71
39177;BME280;24904;52.208;21.192;2024-02-21T06:19:07;100818.80;;;5.74;86.74
39177;BME280;24904;52.208;21.192;2024-02-21T06:24:12;100818.88;;;5.78;86.85
39177;BME280;24904;52.208;21.192;2024-02-21T06:29:17;100826.60;;;5.83;86.90
39177;BME280;24904;52.208;21.192;2024-02-21T06:34:23;100822.33;;;5.89;86.91
39177;BME280;24904;52.208;21.192;2024-02-21T06:39:28;100818.21;;;5.93;86.93
39177;BME280;24904;52.208;21.192;2024-02-21T06:44:33;100821.69;;;5.99;86.83
39177;BME280;24904;52.208;21.192;2024-02-21T06:49:43;100826.70;;;6.04;86.93
39177;BME280;24904;52.208;21.192;2024-02-21T06:54:52;100826.04;;;6.09;87.05
39177;BME280;24904;52.208;21.192;2024-02-21T06:59:57;100827.07;;;6.14;86.96
39177;BME280;24904;52.208;21.192;2024-02-21T07:05:03;100829.11;;;6.19;87.01
39177;BME280;24904;52.208;21.192;2024-02-21T07:10:09;100829.60;;;6.26;87.01
39177;BME280;24904;52.208;21.192;2024-02-21T07:15:15;100824.49;;;6.29;86.92
39177;BME280;24904;52.208;21.192;2024-02-21T07:20:20;100818.55;;;6.35;86.92
39177;BME280;24904;52.208;21.192;2024-02-21T07:25:25;100818.77;;;6.38;86.85
39177;BME280;24904;52.208;21.192;2024-02-21T07:30:30;100821.02;;;6.43;86.90
39177;BME280;24904;52.208;21.192;2024-02-21T07:35:35;100817.17;;;6.49;86.82
39177;BME280;24904;52.208;21.192;2024-02-21T07:40:41;100816.76;;;6.52;86.68
39177;BME280;24904;52.208;21.192;2024-02-21T07:45:46;100811.93;;;6.58;86.71
39177;BME280;24904;52.208;21.192;2024-02-21T07:50:52;100800.55;;;6.62;86.66
39177;BME280;24904;52.208;21.192;2024-02-21T07:55:57;100799.05;;;6.71;86.74
39177;BME280;24904;52.208;21.192;2024-02-21T08:01:02;100791.73;;;6.76;86.64
39177;BME280;24904;52.208;21.192;2024-02-21T08:06:13;100785.77;;;6.81;86.53
39177;BME280;24904;52.208;21.192;2024-02-21T08:11:18;100784.39;;;6.85;86.28
39177;BME280;24904;52.208;21.192;2024-02-21T08:16:23;100783.86;;;6.90;86.31
39177;BME280;24904;52.208;21.192;2024-02-21T08:21:29;100774.69;;;6.96;86.39
39177;BME280;24904;52.208;21.192;2024-02-21T08:26:34;100760.06;;;7.04;86.33
39177;BME280;24904;52.208;21.192;2024-02-21T08:31:39;100755.17;;;7.13;86.35
39177;BME280;24904;52.208;21.192;2024-02-21T08:36:44;100747.36;;;7.23;86.25
39177;BME280;24904;52.208;21.192;2024-02-21T08:41:49;100744.36;;;7.30;86.07
39177;BME280;24904;52.208;21.192;2024-02-21T08:46:55;100743.48;;;7.36;85.73
39177;BME280;24904;52.208;21.192;2024-02-21T08:52:01;100742.54;;;7.44;85.91
39177;BME280;24904;52.208;21.192;2024-02-21T08:57:06;100739.38;;;7.54;85.57
39177;BME280;24904;52.208;21.192;2024-02-21T09:02:11;100737.34;;;7.59;85.06
39177;BME280;24904;52.208;21.192;2024-02-21T09:07:16;100736.27;;;7.62;85.02
39177;BME280;24904;52.208;21.192;2024-02-21T09:12:21;100733.43;;;7.64;84.79
39177;BME280;24904;52.208;21.192;2024-02-21T09:17:26;100734.90;;;7.66;84.78
39177;BME280;24904;52.208;21.192;2024-02-21T09:22:32;100736.11;;;7.70;84.74
39177;BME280;24904;52.208;21.192;2024-02-21T09:27:39;100727.71;;;7.77;84.52
39177;BME280;24904;52.208;21.192;2024-02-21T09:32:44;100726.79;;;7.83;84.44
39177;BME280;24904;52.208;21.192;2024-02-21T09:37:49;100725.67;;;7.88;84.27
39177;BME280;24904;52.208;21.192;2024-02-21T09:43:01;100729.39;;;7.89;84.11
39177;BME280;24904;52.208;21.192;2024-02-21T09:48:23;100722.23;;;7.90;84.04
39177;BME280;24904;52.208;21.192;2024-02-21T09:53:32;100721.39;;;7.91;83.91
39177;BME280;24904;52.208;21.192;2024-02-21T09:58:37;100720.27;;;7.90;83.73
39177;BME280;24904;52.208;21.192;2024-02-21T10:03:44;100719.32;;;7.89;83.64
39177;BME280;24904;52.208;21.192;2024-02-21T10:08:54;100714.48;;;7.92;83.93
39177;BME280;24904;52.208;21.192;2024-02-21T10:14:05;100710.42;;;7.96;83.98
39177;BME280;24904;52.208;21.192;2024-02-21T10:19:19;100700.48;;;8.01;83.95
39177;BME280;24904;52.208;21.192;2024-02-21T10:24:29;100690.09;;;8.07;83.99
39177;BME280;24904;52.208;21.192;2024-02-21T10:29:34;100685.05;;;8.12;83.95
39177;BME280;24904;52.208;21.192;2024-02-21T10:34:41;100683.39;;;8.11;83.31
39177;BME280;24904;52.208;21.192;2024-02-21T10:39:46;100678.87;;;8.15;83.49
39177;BME280;24904;52.208;21.192;2024-02-21T10:44:52;100674.04;;;8.21;83.22
39177;BME280;24904;52.208;21.192;2024-02-21T10:50:02;100670.88;;;8.26;83.24
39177;BME280;24904;52.208;21.192;2024-02-21T10:55:08;100662.01;;;8.33;82.97
39177;BME280;24904;52.208;21.192;2024-02-21T11:00:17;100659.50;;;8.35;82.96
39177;BME280;24904;52.208;21.192;2024-02-21T11:05:22;100653.95;;;8.38;82.73
39177;BME280;24904;52.208;21.192;2024-02-21T11:10:28;100644.62;;;8.34;82.91
39177;BME280;24904;52.208;21.192;2024-02-21T11:15:33;100636.45;;;8.35;83.22
39177;BME280;24904;52.208;21.192;2024-02-21T11:20:39;100627.47;;;8.36;83.49
39177;BME280;24904;52.208;21.192;2024-02-21T11:25:44;100616.79;;;8.37;83.42
39177;BME280;24904;52.208;21.192;2024-02-21T11:30:49;100616.18;;;8.35;83.76
39177;BME280;24904;52.208;21.192;2024-02-21T11:35:55;100601.80;;;8.34;83.65
39177;BME280;24904;52.208;21.192;2024-02-21T11:41:00;100605.48;;;8.32;83.90
39177;BME280;24904;52.208;21.192;2024-02-21T11:46:05;100603.70;;;8.33;84.33
39177;BME280;24904;52.208;21.192;2024-02-21T11:51:11;100599.78;;;8.35;84.42
39177;BME280;24904;52.208;21.192;2024-02-21T11:56:25;100600.05;;;8.34;84.77
39177;BME280;24904;52.208;21.192;2024-02-21T12:01:32;100601.20;;;8.27;84.82
39177;BME280;24904;52.208;21.192;2024-02-21T12:06:37;100592.98;;;8.20;85.23
39177;BME280;24904;52.208;21.192;2024-02-21T12:11:43;100582.94;;;8.16;85.45
39177;BME280;24904;52.208;21.192;2024-02-21T12:16:48;100587.33;;;8.13;85.76
39177;BME280;24904;52.208;21.192;2024-02-21T12:21:55;100580.95;;;8.08;86.15
39177;BME280;24904;52.208;21.192;2024-02-21T12:27:01;100570.23;;;8.03;86.37
39177;BME280;24904;52.208;21.192;2024-02-21T12:32:07;100567.08;;;8.02;86.72
39177;BME280;24904;52.208;21.192;2024-02-21T12:37:12;100567.49;;;8.03;86.95
39177;BME280;24904;52.208;21.192;2024-02-21T12:42:19;100558.33;;;8.02;87.07
39177;BME280;24904;52.208;21.192;2024-02-21T12:47:24;100555.05;;;8.00;87.34
39177;BME280;24904;52.208;21.192;2024-02-21T12:52:30;100541.73;;;7.98;87.29
39177;BME280;24904;52.208;21.192;2024-02-21T12:57:35;100539.70;;;7.94;87.43
39177;BME280;24904;52.208;21.192;2024-02-21T13:02:40;100538.49;;;7.96;87.72
39177;BME280;24904;52.208;21.192;2024-02-21T13:07:46;100534.23;;;7.94;87.70
39177;BME280;24904;52.208;21.192;2024-02-21T13:12:52;100533.62;;;7.88;87.86
39177;BME280;24904;52.208;21.192;2024-02-21T13:17:57;100529.33;;;7.89;88.04
39177;BME280;24904;52.208;21.192;2024-02-21T13:23:03;100526.35;;;7.91;88.26
39177;BME280;24904;52.208;21.192;2024-02-21T13:28:08;100515.61;;;7.90;88.27
39177;BME280;24904;52.208;21.192;2024-02-21T13:33:14;100509.59;;;7.89;88.48
39177;BME280;24904;52.208;21.192;2024-02-21T13:38:19;100497.77;;;7.89;88.56
39177;BME280;24904;52.208;21.192;2024-02-21T13:43:24;100488.48;;;7.89;88.64
39177;BME280;24904;52.208;21.192;2024-02-21T13:48:30;100481.67;;;7.92;88.72
39177;BME280;24904;52.208;21.192;2024-02-21T13:53:36;100475.95;;;7.91;88.88
39177;BME280;24904;52.208;21.192;2024-02-21T13:58:41;100461.48;;;7.90;88.90
39177;BME280;24904;52.208;21.192;2024-02-21T14:03:46;100448.30;;;7.90;88.79
39177;BME280;24904;52.208;21.192;2024-02-21T14:08:52;100441.01;;;7.89;89.06
39177;BME280;24904;52.208;21.192;2024-02-21T14:13:57;100433.13;;;7.87;89.13
39177;BME280;24904;52.208;21.192;2024-02-21T14:19:02;100427.63;;;7.86;89.31
39177;BME280;24904;52.208;21.192;2024-02-21T14:24:08;100423.86;;;7.85;89.33
39177;BME280;24904;52.208;21.192;2024-02-21T14:29:14;100418.04;;;7.83;89.57
39177;BME280;24904;52.208;21.192;2024-02-21T14:34:19;100403.42;;;7.83;89.52
39177;BME280;24904;52.208;21.192;2024-02-21T14:39:24;100406.73;;;7.84;89.65
39177;BME280;24904;52.208;21.192;2024-02-21T14:44:29;100403.45;;;7.87;89.60
39177;BME280;24904;52.208;21.192;2024-02-21T14:49:34;100396.68;;;7.88;89.75
39177;BME280;24904;52.208;21.192;2024-02-21T14:54:41;100390.92;;;7.82;89.57
39177;BME280;24904;52.208;21.192;2024-02-21T14:59:49;100385.94;;;7.80;89.52
39177;BME280;24904;52.208;21.192;2024-02-21T15:04:59;100382.40;;;7.78;89.73
39177;BME280;24904;52.208;21.192;2024-02-21T15:10:05;100384.04;;;7.78;89.67
39177;BME280;24904;52.208;21.192;2024-02-21T15:15:12;100382.14;;;7.77;89.62
39177;BME280;24904;52.208;21.192;2024-02-21T15:20:17;100384.84;;;7.75;89.77
39177;BME280;24904;52.208;21.192;2024-02-21T15:25:22;100382.44;;;7.73;89.79
39177;BME280;24904;52.208;21.192;2024-02-21T15:30:29;100380.76;;;7.74;89.74
39177;BME280;24904;52.208;21.192;2024-02-21T15:35:35;100376.51;;;7.73;89.47
39177;BME280;24904;52.208;21.192;2024-02-21T15:40:40;100368.73;;;7.71;89.62
39177;BME280;24904;52.208;21.192;2024-02-21T15:45:45;100361.06;;;7.71;89.62
39177;BME280;24904;52.208;21.192;2024-02-21T15:50:50;100358.41;;;7.71;89.61
39177;BME280;24904;52.208;21.192;2024-02-21T15:55:56;100353.09;;;7.70;89.69
39177;BME280;24904;52.208;21.192;2024-02-21T16:01:01;100352.30;;;7.70;89.62
39177;BME280;24904;52.208;21.192;2024-02-21T16:06:06;100341.86;;;7.71;89.58
39177;BME280;24904;52.208;21.192;2024-02-21T16:11:15;100343.13;;;7.68;89.47
39177;BME280;24904;52.208;21.192;2024-02-21T16:16:20;100342.58;;;7.68;89.38
39177;BME280;24904;52.208;21.192;2024-02-21T16:21:26;100348.11;;;7.67;89.40
39177;BME280;24904;52.208;21.192;2024-02-21T16:26:31;100345.73;;;7.65;89.28
39177;BME280;24904;52.208;21.192;2024-02-21T16:31:38;100342.73;;;7.64;89.18
39177;BME280;24904;52.208;21.192;2024-02-21T16:36:43;100338.08;;;7.62;89.38
39177;BME280;24904;52.208;21.192;2024-02-21T16:41:49;100337.44;;;7.58;89.25
39177;BME280;24904;52.208;21.192;2024-02-21T16:46:57;100338.52;;;7.58;89.39
39177;BME280;24904;52.208;21.192;2024-02-21T16:52:03;100348.77;;;7.62;89.56
39177;BME280;24904;52.208;21.192;2024-02-21T16:57:08;100343.14;;;7.64;89.42
39177;BME280;24904;52.208;21.192;2024-02-21T17:02:14;100345.19;;;7.66;89.42
39177;BME280;24904;52.208;21.192;2024-02-21T17:12:22;100344.46;;;7.65;89.43
39177;BME280;24904;52.208;21.192;2024-02-21T17:17:25;100341.25;;;7.64;89.41
39177;BME280;24904;52.208;21.192;2024-02-21T17:22:28;100343.88;;;7.67;89.54
39177;BME280;24904;52.208;21.192;2024-02-21T17:27:31;100341.16;;;7.64;89.58
39177;BME280;24904;52.208;21.192;2024-02-21T17:32:35;100331.66;;;7.61;89.54
39177;BME280;24904;52.208;21.192;2024-02-21T17:37:38;100336.20;;;7.61;89.67
39177;BME280;24904;52.208;21.192;2024-02-21T17:42:43;100330.10;;;7.61;89.74
39177;BME280;24904;52.208;21.192;2024-02-21T17:47:51;100325.95;;;7.58;89.68
39177;BME280;24904;52.208;21.192;2024-02-21T17:52:55;100319.80;;;7.58;89.80
39177;BME280;24904;52.208;21.192;2024-02-21T17:57:59;100314.78;;;7.58;89.85
39177;BME280;24904;52.208;21.192;2024-02-21T18:03:06;100313.52;;;7.60;89.74
39177;BME280;24904;52.208;21.192;2024-02-21T18:08:09;100316.90;;;7.61;89.87
39177;BME280;24904;52.208;21.192;2024-02-21T18:13:12;100312.41;;;7.63;89.90
39177;BME280;24904;52.208;21.192;2024-02-21T18:18:15;100312.95;;;7.62;89.59
39177;BME280;24904;52.208;21.192;2024-02-21T18:23:18;100311.77;;;7.62;89.63
39177;BME280;24904;52.208;21.192;2024-02-21T18:28:21;100303.27;;;7.59;89.73
39177;BME280;24904;52.208;21.192;2024-02-21T18:33:24;100294.78;;;7.53;89.77
39177;BME280;24904;52.208;21.192;2024-02-21T18:38:27;100292.16;;;7.51;89.97
39177;BME280;24904;52.208;21.192;2024-02-21T18:43:31;100285.11;;;7.50;90.01
39177;BME280;24904;52.208;21.192;2024-02-21T18:48:34;100288.16;;;7.47;90.01
39177;BME280;24904;52.208;21.192;2024-02-21T18:53:37;100286.94;;;7.47;90.26
39177;BME280;24904;52.208;21.192;2024-02-21T18:58:40;100281.20;;;7.46;90.36
39177;BME280;24904;52.208;21.192;2024-02-21T19:03:43;100276.08;;;7.47;90.29
39177;BME280;24904;52.208;21.192;2024-02-21T19:08:46;100276.08;;;7.51;90.56
39177;BME280;24904;52.208;21.192;2024-02-21T19:13:49;100275.23;;;7.51;90.38
39177;BME280;24904;52.208;21.192;2024-02-21T19:18:52;100272.70;;;7.53;90.41
39177;BME280;24904;52.208;21.192;2024-02-21T19:23:56;100264.50;;;7.54;90.63
39177;BME280;24904;52.208;21.192;2024-02-21T19:28:59;100262.73;;;7.55;90.56
39177;BME280;24904;52.208;21.192;2024-02-21T19:34:02;100254.70;;;7.56;90.62
39177;BME280;24904;52.208;21.192;2024-02-21T19:39:07;100251.98;;;7.52;90.41
39177;BME280;24904;52.208;21.192;2024-02-21T19:44:11;100248.08;;;7.52;90.47
39177;BME280;24904;52.208;21.192;2024-02-21T19:49:14;100246.49;;;7.55;90.43
39177;BME280;24904;52.208;21.192;2024-02-21T19:54:17;100247.71;;;7.57;90.47
39177;BME280;24904;52.208;21.192;2024-02-21T19:59:21;100249.28;;;7.58;90.43
39177;BME280;24904;52.208;21.192;2024-02-21T20:04:24;100243.95;;;7.56;90.45
39177;BME280;24904;52.208;21.192;2024-02-21T20:09:27;100245.52;;;7.57;90.50
39177;BME280;24904;52.208;21.192;2024-02-21T20:14:30;100240.61;;;7.57;90.48
39177;BME280;24904;52.208;21.192;2024-02-21T20:19:33;100240.83;;;7.57;90.59
39177;BME280;24904;52.208;21.192;2024-02-21T20:24:36;100245.41;;;7.56;90.60
39177;BME280;24904;52.208;21.192;2024-02-21T20:29:39;100229.60;;;7.57;90.51
39177;BME280;24904;52.208;21.192;2024-02-21T20:34:43;100232.11;;;7.58;90.51
39177;BME280;24904;52.208;21.192;2024-02-21T20:39:46;100228.69;;;7.58;90.58
39177;BME280;24904;52.208;21.192;2024-02-21T20:44:49;100226.67;;;7.59;90.51
39177;BME280;24904;52.208;21.192;2024-02-21T20:49:52;100228.55;;;7.62;90.40
39177;BME280;24904;52.208;21.192;2024-02-21T20:54:58;100226.18;;;7.65;90.50
39177;BME280;24904;52.208;21.192;2024-02-21T21:00:01;100226.79;;;7.64;90.37
39177;BME280;24904;52.208;21.192;2024-02-21T21:05:06;100223.34;;;7.60;90.33
39177;BME280;24904;52.208;21.192;2024-02-21T21:10:10;100220.39;;;7.60;90.33
39177;BME280;24904;52.208;21.192;2024-02-21T21:15:14;100218.59;;;7.63;90.22
39177;BME280;24904;52.208;21.192;2024-02-21T21:20:17;100218.67;;;7.64;90.21
39177;BME280;24904;52.208;21.192;2024-02-21T21:25:21;100207.55;;;7.66;90.13
39177;BME280;24904;52.208;21.192;2024-02-21T21:30:24;100202.81;;;7.68;90.20
39177;BME280;24904;52.208;21.192;2024-02-21T21:35:28;100195.86;;;7.68;89.87
39177;BME280;24904;52.208;21.192;2024-02-21T21:40:31;100194.20;;;7.66;90.05
39177;BME280;24904;52.208;21.192;2024-02-21T21:45:34;100189.27;;;7.66;89.93
39177;BME280;24904;52.208;21.192;2024-02-21T21:50:38;100181.73;;;7.63;89.57
39177;BME280;24904;52.208;21.192;2024-02-21T21:55:41;100169.66;;;7.61;89.76
39177;BME280;24904;52.208;21.192;2024-02-21T22:00:44;100160.61;;;7.61;89.76
39177;BME280;24904;52.208;21.192;2024-02-21T22:05:49;100155.36;;;7.60;89.82
39177;BME280;24904;52.208;21.192;2024-02-21T22:10:53;100150.03;;;7.60;89.54
39177;BME280;24904;52.208;21.192;2024-02-21T22:15:56;100142.91;;;7.55;89.44
39177;BME280;24904;52.208;21.192;2024-02-21T22:20:59;100140.83;;;7.57;89.49
39177;BME280;24904;52.208;21.192;2024-02-21T22:26:02;100137.44;;;7.55;89.35
39177;BME280;24904;52.208;21.192;2024-02-21T22:31:05;100133.41;;;7.52;89.60
39177;BME280;24904;52.208;21.192;2024-02-21T22:36:10;100131.96;;;7.50;89.34
39177;BME280;24904;52.208;21.192;2024-02-21T22:41:13;100128.35;;;7.49;89.36
39177;BME280;24904;52.208;21.192;2024-02-21T22:46:16;100118.21;;;7.45;89.37
39177;BME280;24904;52.208;21.192;2024-02-21T22:51:20;100115.11;;;7.42;89.60
39177;BME280;24904;52.208;21.192;2024-02-21T22:56:23;100100.89;;;7.42;89.47
39177;BME280;24904;52.208;21.192;2024-02-21T23:01:26;100092.67;;;7.40;89.48
39177;BME280;24904;52.208;21.192;2024-02-21T23:06:29;100087.52;;;7.40;89.42
39177;BME280;24904;52.208;21.192;2024-02-21T23:11:32;100081.12;;;7.40;89.48
39177;BME280;24904;52.208;21.192;2024-02-21T23:16:36;100070.27;;;7.39;89.35
39177;BME280;24904;52.208;21.192;2024-02-21T23:21:43;100071.81;;;7.38;89.53
39177;BME280;24904;52.208;21.192;2024-02-21T23:26:47;100066.08;;;7.37;89.29
39177;BME280;24904;52.208;21.192;2024-02-21T23:31:50;100063.40;;;7.35;89.21
39177;BME280;24904;52.208;21.192;2024-02-21T23:36:53;100063.95;;;7.34;89.18
39177;BME280;24904;52.208;21.192;2024-02-21T23:41:56;100055.67;;;7.31;89.24
39177;BME280;24904;52.208;21.192;2024-02-21T23:47:03;100047.75;;;7.29;89.14
39177;BME280;24904;52.208;21.192;2024-02-21T23:52:06;100045.69;;;7.28;88.86
39177;BME280;24904;52.208;21.192;2024-02-21T23:57:09;100037.64;;;7.27;88.82
